Time;durP1;ratioP1;P1;durP2;ratioP2;P2;SDS_P1;SDS_P2;PMS_P1;PMS_P2;Temp;Humidity;BMP_temperature;BMP_pressure;BME280_temperature;BME280_humidity;BME280_pressure;Samples;Min_cycle;Max_cycle;Signal;HPM_P1;HPM_P2
2023/08/20 00:01:44;;;;;;;9.75;6.20;;;;;;;;;;5041413;28;20048;-74
2023/08/20 00:04:13;;;;;;;9.07;5.50;;;;;;;;;;5040254;28;20078;-76
2023/08/20 00:06:39;;;;;;;7.65;5.47;;;;;;;;;;5040934;28;20025;-75
2023/08/20 00:09:08;;;;;;;6.82;5.40;;;;;;;;;;5040870;28;20033;-76
2023/08/20 00:11:34;;;;;;;8.15;5.55;;;;;;;;;;5041043;28;20033;-76
2023/08/20 00:14:00;;;;;;;6.63;5.32;;;;;;;;;;5043019;28;20092;-77
2023/08/20 00:16:27;;;;;;;9.10;5.80;;;;;;;;;;5040369;28;20025;-74
2023/08/20 00:18:53;;;;;;;7.55;5.63;;;;;;;;;;5041283;28;20033;-76
2023/08/20 00:21:19;;;;;;;10.93;6.75;;;;;;;;;;5040946;28;20029;-76
2023/08/20 00:23:45;;;;;;;9.55;5.45;;;;;;;;;;5042145;28;20239;-75
2023/08/20 00:26:12;;;;;;;7.53;5.78;;;;;;;;;;5041505;28;20033;-76
2023/08/20 00:28:38;;;;;;;7.72;5.72;;;;;;;;;;5040092;28;20026;-76
2023/08/20 00:31:04;;;;;;;10.80;5.93;;;;;;;;;;5040565;28;20021;-76
2023/08/20 00:33:32;;;;;;;11.23;5.88;;;;;;;;;;5039862;28;20036;-75
2023/08/20 00:36:01;;;;;;;6.18;5.10;;;;;;;;;;5041662;28;20120;-75
2023/08/20 00:38:27;;;;;;;6.60;5.40;;;;;;;;;;5042134;28;20029;-76
2023/08/20 00:40:55;;;;;;;9.10;5.70;;;;;;;;;;5040514;28;20033;-74
2023/08/20 00:43:21;;;;;;;8.98;5.53;;;;;;;;;;5039934;28;20041;-75
2023/08/20 00:45:47;;;;;;;7.50;5.50;;;;;;;;;;5038582;28;20043;-76
2023/08/20 00:48:14;;;;;;;9.48;5.68;;;;;;;;;;5039966;28;20037;-74
2023/08/20 00:50:41;;;;;;;10.05;5.25;;;;;;;;;;5040884;28;20571;-75
2023/08/20 00:53:08;;;;;;;15.82;5.65;;;;;;;;;;5038921;28;20581;-75
2023/08/20 00:55:36;;;;;;;7.75;5.53;;;;;;;;;;5041426;28;20128;-77
2023/08/20 00:58:07;;;;;;;8.63;5.38;;;;;;;;;;5038709;28;20139;-76
2023/08/20 01:00:33;;;;;;;7.15;4.80;;;;;;;;;;5039979;28;20033;-76
2023/08/20 01:03:01;;;;;;;5.22;4.60;;;;;;;;;;5057809;28;20029;-76
2023/08/20 01:05:32;;;;;;;7.25;5.25;;;;;;;;;;5039746;28;20037;-76
2023/08/20 01:07:59;;;;;;;9.38;5.20;;;;;;;;;;5038946;28;20048;-76
2023/08/20 01:10:40;;;;;;;13.32;5.57;;;;;;;;;;5038951;28;20106;-74
2023/08/20 01:13:09;;;;;;;8.70;5.18;;;;;;;;;;5039897;28;20040;-75
2023/08/20 01:15:40;;;;;;;6.47;4.43;;;;;;;;;;5041406;28;20515;-74
2023/08/20 01:18:06;;;;;;;7.07;5.18;;;;;;;;;;5058512;28;20602;-76
2023/08/20 01:20:34;;;;;;;8.05;5.13;;;;;;;;;;5039308;28;20029;-73
2023/08/20 01:23:07;;;;;;;8.63;5.40;;;;;;;;;;5038762;28;20043;-74
2023/08/20 01:25:53;;;;;;;10.02;5.57;;;;;;;;;;5076402;27;20536;-77
2023/08/20 01:28:19;;;;;;;8.25;5.78;;;;;;;;;;5084170;28;20759;-78
2023/08/20 01:30:46;;;;;;;5.90;5.00;;;;;;;;;;5068033;28;20036;-77
2023/08/20 01:33:12;;;;;;;6.85;5.45;;;;;;;;;;5067303;28;20028;-75
2023/08/20 01:35:38;;;;;;;7.75;5.03;;;;;;;;;;5083493;28;20037;-76
2023/08/20 01:38:04;;;;;;;8.43;5.88;;;;;;;;;;5068517;28;20144;-77
2023/08/20 01:40:31;;;;;;;9.30;5.55;;;;;;;;;;5068384;28;20043;-75
2023/08/20 01:42:57;;;;;;;7.57;6.03;;;;;;;;;;5085972;28;20457;-76
2023/08/20 01:45:24;;;;;;;7.38;5.70;;;;;;;;;;5085038;28;20898;-75
2023/08/20 01:47:52;;;;;;;8.60;5.85;;;;;;;;;;5078711;28;20124;-77
2023/08/20 01:50:18;;;;;;;8.27;6.15;;;;;;;;;;5078382;28;20449;-76
2023/08/20 01:52:44;;;;;;;11.70;6.28;;;;;;;;;;5068659;28;20020;-77
2023/08/20 01:55:11;;;;;;;9.82;6.78;;;;;;;;;;5086170;28;20056;-77
2023/08/20 01:57:40;;;;;;;8.75;5.55;;;;;;;;;;5075125;28;20326;-75
2023/08/20 02:00:09;;;;;;;9.45;6.25;;;;;;;;;;5070044;28;20044;-75
2023/08/20 02:02:39;;;;;;;8.85;5.90;;;;;;;;;;5075342;28;20561;-77
2023/08/20 02:05:05;;;;;;;7.15;5.03;;;;;;;;;;5072450;28;20017;-77
2023/08/20 02:07:31;;;;;;;8.02;5.22;;;;;;;;;;5068511;28;20029;-75
2023/08/20 02:10:00;;;;;;;9.00;5.45;;;;;;;;;;5068650;28;20044;-75
2023/08/20 02:12:27;;;;;;;8.57;5.43;;;;;;;;;;5067453;28;20037;-75
2023/08/20 02:14:58;;;;;;;8.98;5.72;;;;;;;;;;5069084;28;20032;-76
2023/08/20 02:17:24;;;;;;;7.72;5.60;;;;;;;;;;5074612;28;20029;-77
2023/08/20 02:19:50;;;;;;;10.35;5.53;;;;;;;;;;5067846;28;20901;-75
2023/08/20 02:22:20;;;;;;;8.70;6.15;;;;;;;;;;5068723;28;20032;-76
2023/08/20 02:24:46;;;;;;;17.58;6.20;;;;;;;;;;5068277;28;20041;-74
2023/08/20 02:27:12;;;;;;;9.98;5.65;;;;;;;;;;5068802;28;20044;-76
2023/08/20 02:29:38;;;;;;;8.85;5.53;;;;;;;;;;5067228;28;20028;-74
2023/08/20 02:32:04;;;;;;;7.75;6.18;;;;;;;;;;5066611;28;20060;-75
2023/08/20 02:34:30;;;;;;;8.63;5.95;;;;;;;;;;5067265;28;20040;-75
2023/08/20 02:36:59;;;;;;;11.40;6.65;;;;;;;;;;5053693;28;20043;-74
2023/08/20 02:39:25;;;;;;;10.88;7.05;;;;;;;;;;5053581;28;20040;-73
2023/08/20 02:41:51;;;;;;;11.75;6.45;;;;;;;;;;5106418;22;20156;-73
2023/08/20 02:44:17;;;;;;;11.98;6.10;;;;;;;;;;5063153;28;20156;-77
2023/08/20 02:46:44;;;;;;;14.38;9.20;;;;;;;;;;5062650;28;20032;-76
2023/08/20 02:49:10;;;;;;;16.75;9.82;;;;;;;;;;5062656;28;20078;-75
2023/08/20 02:51:36;;;;;;;17.75;10.32;;;;;;;;;;5063393;28;20024;-73
2023/08/20 02:54:02;;;;;;;19.33;10.32;;;;;;;;;;5045941;28;20044;-74
2023/08/20 02:56:29;;;;;;;12.77;9.60;;;;;;;;;;5062766;28;20056;-76
2023/08/20 02:58:55;;;;;;;12.23;9.27;;;;;;;;;;5063392;28;20042;-73
2023/08/20 03:01:21;;;;;;;12.68;8.55;;;;;;;;;;5063851;28;20119;-73
2023/08/20 03:03:47;;;;;;;12.02;8.80;;;;;;;;;;5045891;28;20036;-76
2023/08/20 03:06:13;;;;;;;11.93;8.95;;;;;;;;;;5063330;28;20464;-76
2023/08/20 03:08:39;;;;;;;12.77;9.30;;;;;;;;;;5062524;28;20028;-75
2023/08/20 03:11:05;;;;;;;13.60;8.52;;;;;;;;;;5037525;28;20039;-76
2023/08/20 03:13:33;;;;;;;12.68;8.50;;;;;;;;;;5062845;28;20016;-73
2023/08/20 03:15:59;;;;;;;10.30;7.78;;;;;;;;;;5059913;28;20032;-76
2023/08/20 03:18:30;;;;;;;11.95;8.70;;;;;;;;;;5037551;28;20027;-74
2023/08/20 03:20:56;;;;;;;16.88;8.73;;;;;;;;;;5063271;28;20033;-78
2023/08/20 03:23:23;;;;;;;13.00;8.27;;;;;;;;;;5062382;28;20031;-74
2023/08/20 03:25:49;;;;;;;13.93;8.13;;;;;;;;;;5063326;28;20162;-73
2023/08/20 03:28:16;;;;;;;10.80;7.95;;;;;;;;;;5037581;28;20089;-76
2023/08/20 03:30:42;;;;;;;11.55;7.88;;;;;;;;;;5045685;28;20093;-75
2023/08/20 03:33:08;;;;;;;10.90;7.88;;;;;;;;;;5062860;28;20384;-75
2023/08/20 03:35:36;;;;;;;13.65;8.35;;;;;;;;;;5043812;28;20036;-75
2023/08/20 03:38:02;;;;;;;9.88;7.18;;;;;;;;;;5064650;28;20032;-74
2023/08/20 03:40:28;;;;;;;10.05;7.15;;;;;;;;;;5063701;28;20040;-74
2023/08/20 03:42:54;;;;;;;15.57;8.57;;;;;;;;;;5037380;28;20082;-76
2023/08/20 03:45:20;;;;;;;19.08;11.40;;;;;;;;;;5062670;28;20036;-74
2023/08/20 03:47:49;;;;;;;20.73;12.25;;;;;;;;;;5040208;28;20563;-77
2023/08/20 03:50:15;;;;;;;17.25;11.07;;;;;;;;;;5066974;28;20624;-74
2023/08/20 03:52:43;;;;;;;21.75;13.95;;;;;;;;;;5061802;28;20036;-75
2023/08/20 03:55:09;;;;;;;21.60;13.18;;;;;;;;;;5050753;28;20444;-76
2023/08/20 03:57:35;;;;;;;25.65;14.77;;;;;;;;;;5060921;28;20039;-75
2023/08/20 04:00:02;;;;;;;22.42;15.63;;;;;;;;;;5065464;28;20121;-78
2023/08/20 04:02:28;;;;;;;23.10;14.82;;;;;;;;;;5061871;28;21689;-75
2023/08/20 04:04:57;;;;;;;22.20;15.25;;;;;;;;;;5048928;28;20025;-73
2023/08/20 04:07:23;;;;;;;22.90;15.43;;;;;;;;;;5048883;28;20056;-73
2023/08/20 04:09:51;;;;;;;27.70;16.35;;;;;;;;;;5045434;28;20675;-76
2023/08/20 04:12:20;;;;;;;25.65;15.63;;;;;;;;;;5063192;28;20029;-74
2023/08/20 04:14:46;;;;;;;22.25;15.38;;;;;;;;;;5041004;28;20032;-77
2023/08/20 04:17:12;;;;;;;30.48;15.98;;;;;;;;;;5063957;28;20049;-74
2023/08/20 04:19:38;;;;;;;22.38;14.93;;;;;;;;;;5045914;28;20082;-78
2023/08/20 04:22:04;;;;;;;26.83;15.63;;;;;;;;;;5061673;28;20028;-74
2023/08/20 04:24:30;;;;;;;22.83;15.95;;;;;;;;;;5061716;28;20037;-75
2023/08/20 04:26:58;;;;;;;29.10;16.50;;;;;;;;;;5060709;28;20036;-78
2023/08/20 04:29:24;;;;;;;32.58;16.52;;;;;;;;;;5061383;28;20028;-74
2023/08/20 04:31:50;;;;;;;25.35;15.07;;;;;;;;;;5036332;28;20150;-76
2023/08/20 04:34:16;;;;;;;23.80;15.15;;;;;;;;;;5036477;28;20040;-75
2023/08/20 04:36:44;;;;;;;20.80;15.02;;;;;;;;;;5041904;28;20500;-76
2023/08/20 04:39:11;;;;;;;22.17;15.00;;;;;;;;;;5061278;28;20082;-74
2023/08/20 04:41:37;;;;;;;25.52;14.35;;;;;;;;;;5061253;28;20484;-75
2023/08/20 04:44:05;;;;;;;21.35;13.82;;;;;;;;;;5060021;28;20028;-76
2023/08/20 04:46:31;;;;;;;17.90;13.07;;;;;;;;;;5035993;28;20024;-75
2023/08/20 04:48:57;;;;;;;19.13;13.52;;;;;;;;;;5042445;28;20128;-74
2023/08/20 04:51:26;;;;;;;22.42;13.07;;;;;;;;;;5061100;28;20107;-74
2023/08/20 04:53:52;;;;;;;17.13;13.15;;;;;;;;;;5036223;28;20028;-76
2023/08/20 04:56:20;;;;;;;18.20;13.00;;;;;;;;;;5036129;28;20108;-74
2023/08/20 04:58:46;;;;;;;22.13;14.25;;;;;;;;;;5060568;28;20032;-75
2023/08/20 05:01:14;;;;;;;25.27;13.23;;;;;;;;;;5036146;28;20038;-74
2023/08/20 05:03:43;;;;;;;23.20;14.68;;;;;;;;;;5035093;28;20094;-76
2023/08/20 05:06:08;;;;;;;20.10;12.82;;;;;;;;;;5037057;28;20429;-74
2023/08/20 05:08:39;;;;;;;19.92;14.43;;;;;;;;;;5043775;28;20033;-76
2023/08/20 05:11:05;;;;;;;19.20;12.82;;;;;;;;;;5060145;28;20115;-76
2023/08/20 05:13:31;;;;;;;19.13;12.82;;;;;;;;;;5060483;28;20031;-74
2023/08/20 05:15:57;;;;;;;27.17;14.07;;;;;;;;;;5059615;28;20020;-73
2023/08/20 05:18:23;;;;;;;20.58;13.63;;;;;;;;;;5060941;28;20029;-74
2023/08/20 05:20:49;;;;;;;23.17;13.52;;;;;;;;;;5060353;28;20029;-77
2023/08/20 05:23:15;;;;;;;20.25;13.25;;;;;;;;;;5035564;28;20043;-74
2023/08/20 05:25:41;;;;;;;21.08;13.55;;;;;;;;;;5043351;28;20040;-77
2023/08/20 05:28:07;;;;;;;23.30;13.65;;;;;;;;;;5042763;28;20103;-75
2023/08/20 05:30:34;;;;;;;23.30;13.35;;;;;;;;;;5059381;28;20567;-75
2023/08/20 05:33:00;;;;;;;28.70;13.93;;;;;;;;;;5041079;28;20028;-75
2023/08/20 05:35:26;;;;;;;18.13;12.02;;;;;;;;;;5059926;28;20081;-77
2023/08/20 05:37:52;;;;;;;22.58;12.07;;;;;;;;;;5035234;28;20123;-74
2023/08/20 05:40:18;;;;;;;18.42;12.20;;;;;;;;;;5041363;28;20031;-76
2023/08/20 05:42:44;;;;;;;18.80;11.63;;;;;;;;;;5059845;28;20603;-74
2023/08/20 05:45:10;;;;;;;24.52;12.25;;;;;;;;;;5059421;28;20062;-72
2023/08/20 05:47:38;;;;;;;21.35;11.38;;;;;;;;;;5060074;28;20036;-75
2023/08/20 05:50:04;;;;;;;21.25;13.05;;;;;;;;;;5043632;28;20029;-75
2023/08/20 05:52:30;;;;;;;24.90;12.23;;;;;;;;;;5062158;28;20089;-73
2023/08/20 05:54:56;;;;;;;17.80;10.38;;;;;;;;;;5061310;28;20036;-74
2023/08/20 05:57:27;;;;;;;18.38;12.15;;;;;;;;;;5063240;28;20037;-74
2023/08/20 05:59:53;;;;;;;20.63;12.23;;;;;;;;;;5060123;28;20036;-73
2023/08/20 06:02:19;;;;;;;20.05;11.27;;;;;;;;;;5042723;28;20479;-76
2023/08/20 06:04:45;;;;;;;20.02;11.10;;;;;;;;;;5060183;28;20056;-75
2023/08/20 06:07:11;;;;;;;16.63;10.95;;;;;;;;;;5060446;28;20035;-75
2023/08/20 06:09:37;;;;;;;18.42;11.85;;;;;;;;;;5060214;28;20025;-77
2023/08/20 06:12:05;;;;;;;20.63;11.82;;;;;;;;;;5037931;28;20615;-74
2023/08/20 06:14:31;;;;;;;23.48;12.13;;;;;;;;;;5063979;28;20063;-73
2023/08/20 06:16:57;;;;;;;19.08;12.20;;;;;;;;;;5046767;28;20066;-76
2023/08/20 06:19:26;;;;;;;23.90;12.43;;;;;;;;;;5062250;28;20368;-74
2023/08/20 06:21:52;;;;;;;20.83;11.60;;;;;;;;;;5044516;28;20036;-75
2023/08/20 06:24:18;;;;;;;17.02;11.50;;;;;;;;;;5063658;28;20381;-75
2023/08/20 06:26:44;;;;;;;18.63;12.23;;;;;;;;;;5063732;28;20481;-74
2023/08/20 06:29:13;;;;;;;17.10;10.98;;;;;;;;;;5063292;28;20039;-76
2023/08/20 06:31:39;;;;;;;20.88;11.88;;;;;;;;;;5045813;28;20025;-75
2023/08/20 06:34:05;;;;;;;22.60;12.45;;;;;;;;;;5063235;28;20032;-76
2023/08/20 06:36:31;;;;;;;23.48;12.25;;;;;;;;;;5037988;28;20036;-76
2023/08/20 06:38:59;;;;;;;19.80;12.20;;;;;;;;;;5046262;28;20479;-76
2023/08/20 06:41:25;;;;;;;18.10;11.25;;;;;;;;;;5064011;28;20098;-74
2023/08/20 06:43:51;;;;;;;17.60;11.85;;;;;;;;;;5063514;28;20036;-74
2023/08/20 06:46:17;;;;;;;18.42;11.63;;;;;;;;;;5063292;28;20115;-76
2023/08/20 06:48:45;;;;;;;16.70;11.48;;;;;;;;;;5039389;28;20017;-75
2023/08/20 06:51:12;;;;;;;14.60;10.00;;;;;;;;;;5062643;28;20025;-74
2023/08/20 06:53:38;;;;;;;17.10;11.43;;;;;;;;;;5046049;28;20035;-75
2023/08/20 06:56:04;;;;;;;21.55;11.57;;;;;;;;;;5063802;28;20106;-74
2023/08/20 06:58:30;;;;;;;17.90;10.18;;;;;;;;;;5062947;28;20028;-76
2023/08/20 07:00:56;;;;;;;15.57;10.65;;;;;;;;;;5063605;28;20047;-76
2023/08/20 07:03:24;;;;;;;17.40;12.18;;;;;;;;;;5046011;28;20044;-74
2023/08/20 07:05:50;;;;;;;20.17;11.15;;;;;;;;;;5045527;28;20033;-77
2023/08/20 07:08:16;;;;;;;13.73;9.55;;;;;;;;;;5038352;28;20464;-74
2023/08/20 07:10:42;;;;;;;18.27;10.88;;;;;;;;;;5062833;28;20029;-75
2023/08/20 07:13:08;;;;;;;18.70;10.75;;;;;;;;;;5046418;28;20032;-74
2023/08/20 07:15:36;;;;;;;18.17;11.50;;;;;;;;;;5045493;28;20036;-75
2023/08/20 07:18:02;;;;;;;17.13;10.48;;;;;;;;;;5062295;28;20464;-75
2023/08/20 07:20:28;;;;;;;17.15;11.60;;;;;;;;;;5045805;28;20059;-75
2023/08/20 07:22:54;;;;;;;22.60;13.35;;;;;;;;;;5039174;28;20618;-77
2023/08/20 07:25:25;;;;;;;22.58;14.85;;;;;;;;;;5062222;28;20044;-75
2023/08/20 07:27:51;;;;;;;23.42;14.38;;;;;;;;;;5062056;28;20074;-77
2023/08/20 07:30:19;;;;;;;26.05;15.85;;;;;;;;;;5062980;28;20032;-76
2023/08/20 07:32:45;;;;;;;28.52;16.52;;;;;;;;;;5063443;28;20854;-76
2023/08/20 07:35:11;;;;;;;19.70;14.05;;;;;;;;;;5062441;28;20032;-75
2023/08/20 07:37:37;;;;;;;23.25;14.98;;;;;;;;;;5038818;28;20398;-76
2023/08/20 07:40:06;;;;;;;21.75;15.60;;;;;;;;;;5065277;28;20036;-74
2023/08/20 07:42:32;;;;;;;26.42;16.02;;;;;;;;;;5046160;28;20048;-74
2023/08/20 07:44:58;;;;;;;21.33;14.43;;;;;;;;;;5064645;28;20098;-76
2023/08/20 07:47:24;;;;;;;25.63;17.30;;;;;;;;;;5044602;28;20436;-73
2023/08/20 07:49:50;;;;;;;27.63;18.95;;;;;;;;;;5038668;28;20564;-75
2023/08/20 07:52:16;;;;;;;30.00;16.90;;;;;;;;;;5062236;28;20040;-76
2023/08/20 07:54:44;;;;;;;22.95;14.50;;;;;;;;;;5036917;28;20456;-76
2023/08/20 07:57:10;;;;;;;21.45;14.35;;;;;;;;;;5061858;28;20036;-74
2023/08/20 07:59:38;;;;;;;19.67;13.73;;;;;;;;;;5038262;28;20028;-75
2023/08/20 08:02:04;;;;;;;22.58;14.43;;;;;;;;;;5045311;28;20050;-75
2023/08/20 08:04:30;;;;;;;21.60;14.07;;;;;;;;;;5044376;28;20047;-75
2023/08/20 08:06:56;;;;;;;19.75;13.13;;;;;;;;;;5062581;28;20107;-76
2023/08/20 08:09:27;;;;;;;22.80;15.60;;;;;;;;;;5061394;28;20031;-75
2023/08/20 08:11:55;;;;;;;24.20;16.05;;;;;;;;;;5061715;28;20021;-74
2023/08/20 08:14:21;;;;;;;22.02;16.25;;;;;;;;;;5037267;28;20034;-75
2023/08/20 08:16:50;;;;;;;25.63;15.65;;;;;;;;;;5062008;28;20024;-76
2023/08/20 08:19:19;;;;;;;24.30;15.10;;;;;;;;;;5045652;28;20047;-76
2023/08/20 08:21:48;;;;;;;26.63;16.13;;;;;;;;;;5037402;28;20178;-77
2023/08/20 08:24:17;;;;;;;26.02;16.25;;;;;;;;;;5043403;28;20101;-73
2023/08/20 08:26:43;;;;;;;22.98;15.05;;;;;;;;;;5061444;28;20033;-76
2023/08/20 08:29:09;;;;;;;22.63;15.13;;;;;;;;;;5059841;28;20326;-76
2023/08/20 08:31:38;;;;;;;24.25;15.35;;;;;;;;;;5061271;28;20059;-74
2023/08/20 08:34:04;;;;;;;22.38;14.43;;;;;;;;;;5060917;28;20094;-75
2023/08/20 08:36:30;;;;;;;27.20;15.82;;;;;;;;;;5036299;28;20036;-75
2023/08/20 08:38:56;;;;;;;22.15;13.98;;;;;;;;;;5043603;28;20090;-75
2023/08/20 08:41:25;;;;;;;18.13;12.98;;;;;;;;;;5061565;28;20048;-73
2023/08/20 08:43:52;;;;;;;17.15;12.90;;;;;;;;;;5059904;28;20024;-75
2023/08/20 08:46:19;;;;;;;19.48;13.55;;;;;;;;;;5044269;28;20032;-75
2023/08/20 08:48:47;;;;;;;26.70;15.82;;;;;;;;;;5040983;28;20488;-73
2023/08/20 08:51:13;;;;;;;21.38;14.70;;;;;;;;;;5060521;28;20031;-77
2023/08/20 08:53:39;;;;;;;20.77;13.52;;;;;;;;;;5043923;28;20059;-76
2023/08/20 08:56:05;;;;;;;23.25;15.25;;;;;;;;;;5037786;28;20948;-76
2023/08/20 08:58:33;;;;;;;24.60;12.90;;;;;;;;;;5043605;28;20032;-75
2023/08/20 09:01:01;;;;;;;20.75;14.88;;;;;;;;;;5061625;28;20036;-76
2023/08/20 09:03:27;;;;;;;22.50;12.45;;;;;;;;;;5046031;28;20543;-76
2023/08/20 09:05:57;;;;;;;25.63;16.63;;;;;;;;;;5059914;28;20123;-76
2023/08/20 09:08:33;;;;;;;20.80;13.60;;;;;;;;;;5044662;28;20056;-77
2023/08/20 09:11:02;;;;;;;16.63;11.52;;;;;;;;;;5044906;28;20040;-76
2023/08/20 09:13:38;;;;;;;20.52;12.77;;;;;;;;;;5061693;28;20334;-75
2023/08/20 09:16:11;;;;;;;19.05;10.38;;;;;;;;;;5041936;28;20154;-75
2023/08/20 09:18:40;;;;;;;17.75;10.32;;;;;;;;;;5060591;28;20024;-73
2023/08/20 09:21:12;;;;;;;20.88;11.88;;;;;;;;;;5060472;28;20039;-75
2023/08/20 09:23:40;;;;;;;23.42;12.32;;;;;;;;;;5037982;28;20024;-76
2023/08/20 09:26:09;;;;;;;14.00;10.07;;;;;;;;;;5063368;28;20028;-76
2023/08/20 09:28:47;;;;;;;15.32;11.52;;;;;;;;;;5062448;28;20032;-75
2023/08/20 09:31:17;;;;;;;14.30;9.88;;;;;;;;;;5044998;28;20048;-75
2023/08/20 09:33:52;;;;;;;16.05;10.75;;;;;;;;;;5060006;28;20024;-74
2023/08/20 09:36:18;;;;;;;16.55;10.60;;;;;;;;;;5060686;28;20395;-75
2023/08/20 09:38:44;;;;;;;13.07;9.00;;;;;;;;;;5059829;28;20040;-75
2023/08/20 09:41:12;;;;;;;12.60;9.75;;;;;;;;;;5060922;28;20032;-74
2023/08/20 09:43:41;;;;;;;12.63;8.93;;;;;;;;;;5060126;28;20036;-76
2023/08/20 09:46:11;;;;;;;15.63;10.50;;;;;;;;;;5045783;28;20036;-75
2023/08/20 09:48:38;;;;;;;17.05;10.65;;;;;;;;;;5064651;28;20033;-76
2023/08/20 09:51:06;;;;;;;13.55;9.48;;;;;;;;;;5064542;28;20032;-76
2023/08/20 09:53:32;;;;;;;13.40;8.23;;;;;;;;;;5046736;28;20540;-75
2023/08/20 09:56:07;;;;;;;13.85;9.70;;;;;;;;;;5064556;28;20032;-76
2023/08/20 09:58:34;;;;;;;12.48;8.73;;;;;;;;;;5064690;28;20166;-76
2023/08/20 10:01:00;;;;;;;14.40;7.07;;;;;;;;;;5064107;28;20472;-76
2023/08/20 10:03:28;;;;;;;15.90;10.32;;;;;;;;;;5063381;28;20039;-77
2023/08/20 10:05:55;;;;;;;14.20;8.77;;;;;;;;;;5039956;28;20044;-75
2023/08/20 10:08:21;;;;;;;15.20;8.55;;;;;;;;;;5045412;28;20029;-75
2023/08/20 10:10:47;;;;;;;13.20;9.45;;;;;;;;;;5045333;28;20055;-77
2023/08/20 10:13:14;;;;;;;15.02;10.15;;;;;;;;;;5038924;28;20043;-76
2023/08/20 10:15:41;;;;;;;13.77;9.27;;;;;;;;;;5046891;28;20029;-76
2023/08/20 10:18:08;;;;;;;13.02;9.20;;;;;;;;;;5063520;28;20079;-76
2023/08/20 10:20:34;;;;;;;12.32;8.20;;;;;;;;;;5046830;28;20025;-75
2023/08/20 10:23:01;;;;;;;12.40;8.35;;;;;;;;;;5062793;28;20036;-75
2023/08/20 10:25:30;;;;;;;10.75;7.80;;;;;;;;;;5046444;28;20029;-77
2023/08/20 10:28:12;;;;;;;11.15;8.70;;;;;;;;;;5062620;28;20043;-75
2023/08/20 10:30:40;;;;;;;12.55;8.57;;;;;;;;;;5063635;28;20039;-75
2023/08/20 10:33:08;;;;;;;13.50;8.05;;;;;;;;;;5063237;28;20033;-77
2023/08/20 10:35:43;;;;;;;12.55;8.43;;;;;;;;;;5038683;28;20174;-76
2023/08/20 10:38:12;;;;;;;9.93;7.63;;;;;;;;;;5038534;28;20121;-78
2023/08/20 10:40:55;;;;;;;11.63;7.97;;;;;;;;;;5063696;28;20036;-76
2023/08/20 10:43:41;;;;;;;10.82;8.30;;;;;;;;;;5061321;28;20032;-77
2023/08/20 10:46:07;;;;;;;10.18;8.45;;;;;;;;;;5045309;28;20028;-77
2023/08/20 10:48:34;;;;;;;9.98;7.70;;;;;;;;;;5039110;28;20107;-77
2023/08/20 10:51:06;;;;;;;12.32;8.05;;;;;;;;;;5062279;28;20041;-75
2023/08/20 10:53:32;;;;;;;9.32;7.32;;;;;;;;;;5062481;28;20052;-75
2023/08/20 10:56:07;;;;;;;9.13;7.20;;;;;;;;;;5063180;28;20041;-77
2023/08/20 10:58:33;;;;;;;15.07;8.50;;;;;;;;;;5062319;28;20028;-77
2023/08/20 11:01:26;;;;;;;11.23;9.13;;;;;;;;;;5045830;28;20032;-74
2023/08/20 11:03:54;;;;;;;10.73;7.22;;;;;;;;;;5043122;28;20040;-76
2023/08/20 11:06:20;;;;;;;10.73;7.22;;;;;;;;;;5062375;28;20081;-76
2023/08/20 11:08:49;;;;;;;10.20;7.35;;;;;;;;;;5045585;28;20024;-76
2023/08/20 11:11:15;;;;;;;12.43;7.50;;;;;;;;;;5065460;28;20111;-75
2023/08/20 11:13:42;;;;;;;9.30;8.02;;;;;;;;;;5045931;28;20979;-76
2023/08/20 11:16:09;;;;;;;10.27;6.78;;;;;;;;;;5064878;28;20140;-76
2023/08/20 11:18:37;;;;;;;8.73;6.63;;;;;;;;;;5062406;28;20032;-74
2023/08/20 11:21:04;;;;;;;7.53;6.50;;;;;;;;;;5044885;28;20021;-75
2023/08/20 11:23:30;;;;;;;7.35;5.90;;;;;;;;;;5043894;28;20029;-76
2023/08/20 11:25:56;;;;;;;8.77;6.68;;;;;;;;;;5062607;28;20063;-77
2023/08/20 11:28:25;;;;;;;12.82;7.05;;;;;;;;;;5063898;28;20664;-76
2023/08/20 11:30:54;;;;;;;9.90;6.88;;;;;;;;;;5045871;28;20029;-75
2023/08/20 11:33:23;;;;;;;11.50;7.00;;;;;;;;;;5062496;28;20120;-76
2023/08/20 11:35:50;;;;;;;8.80;6.40;;;;;;;;;;5045203;28;20024;-75
2023/08/20 11:38:16;;;;;;;9.77;5.55;;;;;;;;;;5044131;28;20163;-76
2023/08/20 11:40:42;;;;;;;10.50;6.53;;;;;;;;;;5062391;28;20029;-74
2023/08/20 11:43:08;;;;;;;7.70;6.18;;;;;;;;;;5062166;28;20081;-76
2023/08/20 11:45:44;;;;;;;7.38;5.80;;;;;;;;;;5060967;28;20024;-73
2023/08/20 11:48:10;;;;;;;7.93;5.35;;;;;;;;;;5045114;28;20098;-75
2023/08/20 11:50:37;;;;;;;6.53;4.70;;;;;;;;;;5044614;28;20021;-77
2023/08/20 11:53:03;;;;;;;8.38;5.50;;;;;;;;;;5061795;28;20021;-76
2023/08/20 11:55:32;;;;;;;6.72;5.25;;;;;;;;;;5044287;28;20028;-74
2023/08/20 11:57:58;;;;;;;6.20;5.50;;;;;;;;;;5061887;28;20725;-75
2023/08/20 12:00:27;;;;;;;7.72;5.40;;;;;;;;;;5062185;28;20037;-75
2023/08/20 12:02:57;;;;;;;11.13;5.82;;;;;;;;;;5059963;28;20025;-75
2023/08/20 12:05:26;;;;;;;9.00;5.53;;;;;;;;;;5061993;28;20040;-74
2023/08/20 12:07:59;;;;;;;6.50;4.97;;;;;;;;;;5061420;28;20025;-74
2023/08/20 12:10:29;;;;;;;6.45;5.10;;;;;;;;;;5061318;28;20129;-76
2023/08/20 12:12:55;;;;;;;6.68;5.40;;;;;;;;;;5061010;28;20111;-75
2023/08/20 12:15:22;;;;;;;6.45;5.25;;;;;;;;;;5062435;28;20032;-77
2023/08/20 12:17:57;;;;;;;8.70;5.45;;;;;;;;;;5043035;28;20457;-75
2023/08/20 12:20:23;;;;;;;7.53;6.53;;;;;;;;;;5061135;28;20029;-76
2023/08/20 12:22:50;;;;;;;6.20;5.32;;;;;;;;;;5060252;28;20032;-77
2023/08/20 12:25:15;;;;;;;11.13;5.72;;;;;;;;;;5061435;28;20453;-75
2023/08/20 12:27:42;;;;;;;8.20;5.57;;;;;;;;;;5061185;28;20033;-76
2023/08/20 12:30:08;;;;;;;7.10;5.43;;;;;;;;;;5061041;28;20020;-76
2023/08/20 12:32:34;;;;;;;7.15;5.75;;;;;;;;;;5035424;28;20024;-74
2023/08/20 12:35:00;;;;;;;7.47;5.63;;;;;;;;;;5043494;28;20032;-75
2023/08/20 12:37:26;;;;;;;5.90;5.22;;;;;;;;;;5061832;28;20106;-76
2023/08/20 12:39:52;;;;;;;6.63;4.95;;;;;;;;;;5060697;28;20029;-76
2023/08/20 12:42:18;;;;;;;14.82;6.00;;;;;;;;;;5060642;28;20126;-77
2023/08/20 12:44:44;;;;;;;7.88;5.60;;;;;;;;;;5060603;28;20371;-76
2023/08/20 12:47:12;;;;;;;8.02;5.10;;;;;;;;;;5042821;28;20460;-75
2023/08/20 12:49:40;;;;;;;5.63;4.70;;;;;;;;;;5061112;28;20474;-76
2023/08/20 12:52:09;;;;;;;8.07;5.22;;;;;;;;;;5043035;28;20033;-75
2023/08/20 12:54:37;;;;;;;6.40;5.03;;;;;;;;;;5063940;28;20040;-75
2023/08/20 12:57:03;;;;;;;7.05;5.30;;;;;;;;;;5043969;28;20028;-76
2023/08/20 12:59:32;;;;;;;8.38;4.40;;;;;;;;;;5040170;28;20037;-74
2023/08/20 13:01:58;;;;;;;7.47;5.05;;;;;;;;;;5058402;28;20660;-75
2023/08/20 13:04:24;;;;;;;5.85;4.95;;;;;;;;;;5043438;28;20449;-75
2023/08/20 13:06:50;;;;;;;5.30;4.53;;;;;;;;;;5044141;28;20024;-75
2023/08/20 13:09:18;;;;;;;6.05;4.65;;;;;;;;;;5036169;28;20029;-75
2023/08/20 13:11:45;;;;;;;6.47;4.20;;;;;;;;;;5043552;28;20106;-74
2023/08/20 13:14:11;;;;;;;6.50;4.38;;;;;;;;;;5060044;28;20055;-74
2023/08/20 13:16:37;;;;;;;4.03;3.47;;;;;;;;;;5042362;28;20171;-77
2023/08/20 13:19:03;;;;;;;4.70;3.55;;;;;;;;;;5061196;28;20028;-75
2023/08/20 13:21:31;;;;;;;6.40;4.35;;;;;;;;;;5059179;28;20033;-75
2023/08/20 13:23:57;;;;;;;4.07;3.67;;;;;;;;;;5059786;28;20090;-76
2023/08/20 13:26:23;;;;;;;6.50;3.53;;;;;;;;;;5044093;28;20032;-75
2023/08/20 13:28:49;;;;;;;4.78;4.03;;;;;;;;;;5060324;28;20024;-76
2023/08/20 13:31:15;;;;;;;4.80;3.47;;;;;;;;;;5060204;28;20438;-75
2023/08/20 13:33:44;;;;;;;4.90;3.83;;;;;;;;;;5061876;28;20038;-76
2023/08/20 13:36:09;;;;;;;8.27;3.65;;;;;;;;;;5059395;28;20039;-75
2023/08/20 13:38:35;;;;;;;11.38;4.63;;;;;;;;;;5061685;28;20037;-77
2023/08/20 13:41:01;;;;;;;7.50;3.97;;;;;;;;;;5062123;28;20036;-76
2023/08/20 13:43:30;;;;;;;5.90;4.03;;;;;;;;;;5064090;28;20306;-74
2023/08/20 13:45:56;;;;;;;6.15;3.67;;;;;;;;;;5062233;28;20033;-77
2023/08/20 13:48:22;;;;;;;5.32;3.40;;;;;;;;;;5060740;28;20036;-76
2023/08/20 13:50:48;;;;;;;5.53;3.72;;;;;;;;;;5062596;28;20044;-76
2023/08/20 13:53:14;;;;;;;5.80;3.20;;;;;;;;;;5064810;28;20025;-75
2023/08/20 13:55:40;;;;;;;5.22;3.72;;;;;;;;;;5040556;28;20051;-75
2023/08/20 13:58:07;;;;;;;8.85;4.22;;;;;;;;;;5035962;28;20032;-75
2023/08/20 14:00:33;;;;;;;4.70;3.50;;;;;;;;;;5060950;28;20126;-78
2023/08/20 14:03:04;;;;;;;3.60;3.28;;;;;;;;;;5037442;28;20469;-76
2023/08/20 14:05:30;;;;;;;5.32;3.67;;;;;;;;;;5062576;28;20048;-76
2023/08/20 14:07:56;;;;;;;5.22;3.42;;;;;;;;;;5060960;28;20021;-74
2023/08/20 14:10:24;;;;;;;18.50;4.63;;;;;;;;;;5044418;28;20041;-74
2023/08/20 14:12:50;;;;;;;5.03;3.28;;;;;;;;;;5061369;28;20024;-73
2023/08/20 14:15:18;;;;;;;5.25;3.45;;;;;;;;;;5060310;28;20552;-75
2023/08/20 14:17:44;;;;;;;4.68;3.67;;;;;;;;;;5041922;28;20032;-75
2023/08/20 14:20:14;;;;;;;5.32;3.20;;;;;;;;;;5035785;28;20127;-76
2023/08/20 14:22:40;;;;;;;5.95;4.10;;;;;;;;;;5059774;28;20159;-75
2023/08/20 14:25:06;;;;;;;5.32;4.00;;;;;;;;;;5059697;28;20411;-76
2023/08/20 14:27:32;;;;;;;6.30;3.45;;;;;;;;;;5043026;28;20028;-75
2023/08/20 14:29:58;;;;;;;5.93;3.47;;;;;;;;;;5040154;28;20040;-75